createdAt,value
2023-05-02T18:48:04.817Z,1.83
2023-05-02T18:51:06.413Z,1.60
2023-05-02T18:54:07.885Z,1.98
2023-05-02T18:57:09.314Z,1.83
2023-05-02T19:00:11.946Z,1.95
2023-05-02T19:03:13.607Z,1.40
2023-05-02T19:06:18.533Z,1.90
2023-05-02T19:09:20.089Z,1.45
2023-05-02T19:12:21.523Z,1.63
2023-05-02T19:15:26.490Z,1.40
2023-05-02T19:18:28.053Z,1.33
2023-05-02T19:21:29.536Z,1.35
2023-05-02T19:24:31.349Z,1.40
2023-05-02T19:27:32.778Z,1.38
2023-05-02T19:30:34.297Z,1.10
2023-05-02T19:33:36.707Z,1.40
2023-05-02T19:36:38.264Z,1.20
2023-05-02T19:39:39.692Z,1.20
2023-05-02T19:42:41.142Z,1.02
2023-05-02T19:45:42.643Z,1.15
2023-05-02T19:48:44.554Z,1.10
2023-05-02T19:51:46.215Z,1.30
2023-05-02T19:54:50.833Z,1.10
2023-05-02T19:57:52.337Z,1.42
2023-05-02T20:00:54.279Z,1.10
2023-05-02T20:03:55.841Z,1.00
2023-05-02T20:06:57.339Z,1.13
2023-05-02T20:09:58.858Z,0.90
2023-05-02T20:13:00.470Z,1.10
2023-05-02T20:16:01.970Z,1.00
2023-05-02T20:19:04.231Z,1.50
2023-05-02T20:22:05.683Z,0.90
2023-05-02T20:25:09.576Z,1.00
2023-05-02T20:28:11.356Z,0.90
2023-05-02T20:31:12.812Z,0.88
2023-05-02T20:34:14.360Z,0.90
2023-05-02T20:37:16.057Z,1.08
2023-05-02T20:40:17.813Z,0.73
2023-05-02T20:43:19.795Z,1.02
2023-05-02T20:46:21.501Z,0.90
2023-05-02T20:49:23.074Z,0.82
2023-05-02T20:52:24.891Z,0.93
2023-05-02T20:55:26.617Z,0.90
2023-05-02T20:58:28.096Z,0.70
2023-05-02T21:01:29.550Z,0.80
2023-05-02T21:04:31.048Z,0.85
2023-05-02T21:07:32.526Z,1.40
2023-05-02T21:10:33.998Z,0.80
2023-05-02T21:13:35.474Z,0.82
2023-05-02T21:16:37.083Z,0.52
2023-05-02T21:19:38.651Z,0.70
2023-05-02T21:22:41.868Z,0.90
2023-05-02T21:25:43.463Z,0.80
2023-05-02T21:28:44.994Z,0.88
2023-05-02T21:31:46.868Z,0.88
2023-05-02T21:34:48.410Z,0.60
2023-05-02T21:37:49.917Z,0.90
2023-05-02T21:40:51.646Z,0.95
2023-05-02T21:43:54.023Z,0.80
2023-05-02T21:46:55.744Z,0.85
2023-05-02T21:49:57.386Z,0.80
2023-05-02T21:52:58.936Z,1.30
2023-05-02T21:56:00.430Z,1.10
2023-05-02T21:59:01.905Z,1.20
